Herne Bay, United Kingdom
Current Conditions -  °F | °C
As of 2:20 PM on Friday 28 Nov 2014 (Local Time) from EGMC Reporting Station
Few Clouds Few Clouds  
Wind Chill: 13°   Ceiling: Unl
Heat Index: 13°   Visibility: 6mi
Dew Point: 10°   Wind: 12mph
Humidity: 82%   Direction: 90°E
Pressure: 29.62"   Gusts: NA
Location:  51.37°N, 1.13°E
Report Text: EGMC 281420Z 09010KT 9999 FEW012 13/10 Q1003
Loading
Personal Weather Stations






























Interactive Weather Map New forecast layout! Learn more

10-Day Weather Forecast

Advertisements
Track Severe Weather on mobile